sensor_id;sensor_type;location;lat;lon;timestamp;P1;durP1;ratioP1;P2;durP2;ratioP2
77978;SDS011;67169;50.268;8.694;2023-05-10T00:01:05;0.73;;;0.70;;
77978;SDS011;67169;50.268;8.694;2023-05-10T00:03:32;0.70;;;0.47;;
77978;SDS011;67169;50.268;8.694;2023-05-10T00:05:59;1.88;;;1.02;;
77978;SDS011;67169;50.268;8.694;2023-05-10T00:08:25;0.63;;;0.40;;
77978;SDS011;67169;50.268;8.694;2023-05-10T00:10:52;0.30;;;0.30;;
77978;SDS011;67169;50.268;8.694;2023-05-10T00:13:20;0.30;;;0.25;;
77978;SDS011;67169;50.268;8.694;2023-05-10T00:15:47;0.60;;;0.38;;
77978;SDS011;67169;50.268;8.694;2023-05-10T00:18:13;0.43;;;0.30;;
77978;SDS011;67169;50.268;8.694;2023-05-10T00:20:40;2.15;;;0.50;;
77978;SDS011;67169;50.268;8.694;2023-05-10T00:23:06;1.08;;;0.40;;
77978;SDS011;67169;50.268;8.694;2023-05-10T00:25:33;0.82;;;0.30;;
77978;SDS011;67169;50.268;8.694;2023-05-10T00:27:59;2.08;;;0.30;;
77978;SDS011;67169;50.268;8.694;2023-05-10T00:30:28;1.42;;;0.50;;
77978;SDS011;67169;50.268;8.694;2023-05-10T00:32:54;0.20;;;0.20;;
77978;SDS011;67169;50.268;8.694;2023-05-10T00:35:21;0.38;;;0.30;;
77978;SDS011;67169;50.268;8.694;2023-05-10T00:37:47;0.17;;;0.17;;
77978;SDS011;67169;50.268;8.694;2023-05-10T00:40:14;0.20;;;0.20;;
77978;SDS011;67169;50.268;8.694;2023-05-10T00:42:41;1.90;;;0.30;;
77978;SDS011;67169;50.268;8.694;2023-05-10T00:45:08;0.50;;;0.28;;
77978;SDS011;67169;50.268;8.694;2023-05-10T00:47:36;2.08;;;0.22;;
77978;SDS011;67169;50.268;8.694;2023-05-10T00:50:02;0.50;;;0.30;;
77978;SDS011;67169;50.268;8.694;2023-05-10T00:52:31;0.32;;;0.20;;
77978;SDS011;67169;50.268;8.694;2023-05-10T00:54:58;0.45;;;0.32;;
77978;SDS011;67169;50.268;8.694;2023-05-10T00:57:24;0.50;;;0.30;;
77978;SDS011;67169;50.268;8.694;2023-05-10T00:59:51;0.43;;;0.10;;
77978;SDS011;67169;50.268;8.694;2023-05-10T01:02:18;3.70;;;0.22;;
77978;SDS011;67169;50.268;8.694;2023-05-10T01:04:46;0.10;;;0.10;;
77978;SDS011;67169;50.268;8.694;2023-05-10T01:07:12;1.65;;;0.10;;
77978;SDS011;67169;50.268;8.694;2023-05-10T01:09:39;0.60;;;0.10;;
77978;SDS011;67169;50.268;8.694;2023-05-10T01:12:06;0.20;;;0.10;;
77978;SDS011;67169;50.268;8.694;2023-05-10T01:14:33;0.10;;;0.10;;
77978;SDS011;67169;50.268;8.694;2023-05-10T01:17:01;0.00;;;0.00;;
77978;SDS011;67169;50.268;8.694;2023-05-10T01:19:28;0.68;;;0.10;;
77978;SDS011;67169;50.268;8.694;2023-05-10T01:22:00;0.10;;;0.10;;
77978;SDS011;67169;50.268;8.694;2023-05-10T01:28:02;0.55;;;0.13;;
77978;SDS011;67169;50.268;8.694;2023-05-10T01:30:50;0.40;;;0.28;;
77978;SDS011;67169;50.268;8.694;2023-05-10T01:33:35;0.70;;;0.20;;
77978;SDS011;67169;50.268;8.694;2023-05-10T01:36:05;0.13;;;0.10;;
77978;SDS011;67169;50.268;8.694;2023-05-10T01:38:41;0.35;;;0.20;;
77978;SDS011;67169;50.268;8.694;2023-05-10T01:41:16;0.93;;;0.25;;
77978;SDS011;67169;50.268;8.694;2023-05-10T01:43:48;0.20;;;0.20;;
77978;SDS011;67169;50.268;8.694;2023-05-10T01:46:24;0.20;;;0.10;;
77978;SDS011;67169;50.268;8.694;2023-05-10T01:48:57;8.80;;;0.30;;
77978;SDS011;67169;50.268;8.694;2023-05-10T01:51:27;0.40;;;0.13;;
77978;SDS011;67169;50.268;8.694;2023-05-10T01:53:59;0.10;;;0.10;;
77978;SDS011;67169;50.268;8.694;2023-05-10T01:56:28;0.28;;;0.10;;
77978;SDS011;67169;50.268;8.694;2023-05-10T01:58:57;0.30;;;0.20;;
77978;SDS011;67169;50.268;8.694;2023-05-10T02:01:25;0.00;;;0.00;;
77978;SDS011;67169;50.268;8.694;2023-05-10T02:03:53;0.90;;;0.20;;
77978;SDS011;67169;50.268;8.694;2023-05-10T02:08:50;0.13;;;0.10;;
77978;SDS011;67169;50.268;8.694;2023-05-10T02:11:18;0.30;;;0.22;;
77978;SDS011;67169;50.268;8.694;2023-05-10T02:13:47;0.10;;;0.10;;
77978;SDS011;67169;50.268;8.694;2023-05-10T02:16:16;0.20;;;0.20;;
77978;SDS011;67169;50.268;8.694;2023-05-10T02:18:44;2.42;;;0.20;;
77978;SDS011;67169;50.268;8.694;2023-05-10T02:21:12;1.38;;;0.20;;
77978;SDS011;67169;50.268;8.694;2023-05-10T02:23:41;2.25;;;0.20;;
77978;SDS011;67169;50.268;8.694;2023-05-10T02:26:09;0.20;;;0.13;;
77978;SDS011;67169;50.268;8.694;2023-05-10T02:28:38;1.08;;;0.40;;
77978;SDS011;67169;50.268;8.694;2023-05-10T02:31:06;1.75;;;0.30;;
77978;SDS011;67169;50.268;8.694;2023-05-10T02:33:35;0.90;;;0.20;;
77978;SDS011;67169;50.268;8.694;2023-05-10T02:36:05;0.35;;;0.22;;
77978;SDS011;67169;50.268;8.694;2023-05-10T02:38:33;0.25;;;0.22;;
77978;SDS011;67169;50.268;8.694;2023-05-10T02:41:03;2.22;;;0.47;;
77978;SDS011;67169;50.268;8.694;2023-05-10T02:43:32;0.80;;;0.32;;
77978;SDS011;67169;50.268;8.694;2023-05-10T02:45:59;0.60;;;0.60;;
77978;SDS011;67169;50.268;8.694;2023-05-10T02:48:26;0.80;;;0.70;;
77978;SDS011;67169;50.268;8.694;2023-05-10T02:50:53;0.60;;;0.60;;
77978;SDS011;67169;50.268;8.694;2023-05-10T02:53:22;0.57;;;0.55;;
77978;SDS011;67169;50.268;8.694;2023-05-10T02:55:57;1.40;;;0.75;;
77978;SDS011;67169;50.268;8.694;2023-05-10T02:58:30;0.55;;;0.55;;
77978;SDS011;67169;50.268;8.694;2023-05-10T03:00:56;0.60;;;0.60;;
77978;SDS011;67169;50.268;8.694;2023-05-10T03:03:23;2.60;;;0.75;;
77978;SDS011;67169;50.268;8.694;2023-05-10T03:05:49;1.48;;;0.60;;
77978;SDS011;67169;50.268;8.694;2023-05-10T03:08:18;0.90;;;0.60;;
77978;SDS011;67169;50.268;8.694;2023-05-10T03:10:47;0.57;;;0.57;;
77978;SDS011;67169;50.268;8.694;2023-05-10T03:13:25;0.82;;;0.70;;
77978;SDS011;67169;50.268;8.694;2023-05-10T03:16:03;0.80;;;0.60;;
77978;SDS011;67169;50.268;8.694;2023-05-10T03:18:36;0.60;;;0.60;;
77978;SDS011;67169;50.268;8.694;2023-05-10T03:23:39;2.10;;;0.80;;
77978;SDS011;67169;50.268;8.694;2023-05-10T03:26:08;0.80;;;0.80;;
77978;SDS011;67169;50.268;8.694;2023-05-10T03:28:36;1.00;;;0.90;;
77978;SDS011;67169;50.268;8.694;2023-05-10T03:31:03;1.00;;;0.80;;
77978;SDS011;67169;50.268;8.694;2023-05-10T03:33:31;3.08;;;1.80;;
77978;SDS011;67169;50.268;8.694;2023-05-10T03:35:58;1.58;;;1.30;;
77978;SDS011;67169;50.268;8.694;2023-05-10T03:38:25;2.10;;;1.70;;
77978;SDS011;67169;50.268;8.694;2023-05-10T03:40:51;4.50;;;1.80;;
77978;SDS011;67169;50.268;8.694;2023-05-10T03:43:18;2.72;;;1.92;;
77978;SDS011;67169;50.268;8.694;2023-05-10T03:45:46;1.73;;;1.27;;
77978;SDS011;67169;50.268;8.694;2023-05-10T03:48:12;2.60;;;1.42;;
77978;SDS011;67169;50.268;8.694;2023-05-10T03:50:39;3.58;;;1.80;;
77978;SDS011;67169;50.268;8.694;2023-05-10T03:53:06;2.10;;;1.60;;
77978;SDS011;67169;50.268;8.694;2023-05-10T03:55:32;1.65;;;1.48;;
77978;SDS011;67169;50.268;8.694;2023-05-10T03:58:01;4.30;;;1.58;;
77978;SDS011;67169;50.268;8.694;2023-05-10T04:00:27;2.80;;;1.83;;
77978;SDS011;67169;50.268;8.694;2023-05-10T04:02:56;3.55;;;1.60;;
77978;SDS011;67169;50.268;8.694;2023-05-10T04:05:23;3.80;;;1.60;;
77978;SDS011;67169;50.268;8.694;2023-05-10T04:07:49;2.55;;;1.50;;
77978;SDS011;67169;50.268;8.694;2023-05-10T04:10:16;1.48;;;1.17;;
77978;SDS011;67169;50.268;8.694;2023-05-10T04:12:43;2.70;;;1.48;;
77978;SDS011;67169;50.268;8.694;2023-05-10T04:15:09;3.72;;;1.48;;
77978;SDS011;67169;50.268;8.694;2023-05-10T04:17:36;1.52;;;1.10;;
77978;SDS011;67169;50.268;8.694;2023-05-10T04:20:05;2.15;;;1.13;;
77978;SDS011;67169;50.268;8.694;2023-05-10T04:22:32;2.10;;;1.30;;
77978;SDS011;67169;50.268;8.694;2023-05-10T04:24:58;2.15;;;1.52;;
77978;SDS011;67169;50.268;8.694;2023-05-10T04:27:25;3.75;;;1.50;;
77978;SDS011;67169;50.268;8.694;2023-05-10T04:29:52;2.08;;;1.58;;
77978;SDS011;67169;50.268;8.694;2023-05-10T04:32:18;2.03;;;1.42;;
77978;SDS011;67169;50.268;8.694;2023-05-10T04:34:45;2.33;;;1.60;;
77978;SDS011;67169;50.268;8.694;2023-05-10T04:37:13;2.38;;;1.50;;
77978;SDS011;67169;50.268;8.694;2023-05-10T04:39:39;1.70;;;1.33;;
77978;SDS011;67169;50.268;8.694;2023-05-10T04:42:06;2.30;;;1.40;;
77978;SDS011;67169;50.268;8.694;2023-05-10T04:44:33;3.90;;;1.63;;
77978;SDS011;67169;50.268;8.694;2023-05-10T04:46:59;2.03;;;1.70;;
77978;SDS011;67169;50.268;8.694;2023-05-10T04:49:27;2.00;;;1.45;;
77978;SDS011;67169;50.268;8.694;2023-05-10T04:51:53;1.20;;;1.02;;
77978;SDS011;67169;50.268;8.694;2023-05-10T04:54:21;2.15;;;1.05;;
77978;SDS011;67169;50.268;8.694;2023-05-10T04:56:48;3.25;;;1.35;;
77978;SDS011;67169;50.268;8.694;2023-05-10T04:59:14;1.48;;;1.10;;
77978;SDS011;67169;50.268;8.694;2023-05-10T05:01:41;2.08;;;0.88;;
77978;SDS011;67169;50.268;8.694;2023-05-10T05:04:08;1.40;;;1.30;;
77978;SDS011;67169;50.268;8.694;2023-05-10T05:06:34;1.17;;;1.05;;
77978;SDS011;67169;50.268;8.694;2023-05-10T05:09:01;1.27;;;1.10;;
77978;SDS011;67169;50.268;8.694;2023-05-10T05:11:29;2.85;;;1.10;;
77978;SDS011;67169;50.268;8.694;2023-05-10T05:13:55;1.15;;;0.90;;
77978;SDS011;67169;50.268;8.694;2023-05-10T05:16:23;3.00;;;1.20;;
77978;SDS011;67169;50.268;8.694;2023-05-10T05:18:50;3.63;;;1.10;;
77978;SDS011;67169;50.268;8.694;2023-05-10T05:21:17;3.55;;;1.23;;
77978;SDS011;67169;50.268;8.694;2023-05-10T05:23:44;3.00;;;1.50;;
77978;SDS011;67169;50.268;8.694;2023-05-10T05:26:11;2.20;;;1.75;;
77978;SDS011;67169;50.268;8.694;2023-05-10T05:28:39;3.42;;;1.60;;
77978;SDS011;67169;50.268;8.694;2023-05-10T05:31:06;2.42;;;1.65;;
77978;SDS011;67169;50.268;8.694;2023-05-10T05:33:34;2.28;;;1.50;;
77978;SDS011;67169;50.268;8.694;2023-05-10T05:36:00;2.20;;;1.77;;
77978;SDS011;67169;50.268;8.694;2023-05-10T05:38:27;4.72;;;1.63;;
77978;SDS011;67169;50.268;8.694;2023-05-10T05:40:54;2.38;;;1.60;;
77978;SDS011;67169;50.268;8.694;2023-05-10T05:43:20;1.67;;;1.58;;
77978;SDS011;67169;50.268;8.694;2023-05-10T05:45:48;2.22;;;1.85;;
77978;SDS011;67169;50.268;8.694;2023-05-10T05:48:15;3.40;;;1.95;;
77978;SDS011;67169;50.268;8.694;2023-05-10T05:50:41;2.97;;;1.90;;
77978;SDS011;67169;50.268;8.694;2023-05-10T05:53:08;2.88;;;2.10;;
77978;SDS011;67169;50.268;8.694;2023-05-10T05:55:35;3.78;;;2.25;;
77978;SDS011;67169;50.268;8.694;2023-05-10T05:58:01;3.60;;;2.15;;
77978;SDS011;67169;50.268;8.694;2023-05-10T06:00:28;3.40;;;2.08;;
77978;SDS011;67169;50.268;8.694;2023-05-10T06:02:56;2.90;;;2.10;;
77978;SDS011;67169;50.268;8.694;2023-05-10T06:05:23;3.20;;;2.10;;
77978;SDS011;67169;50.268;8.694;2023-05-10T06:07:49;2.67;;;1.77;;
77978;SDS011;67169;50.268;8.694;2023-05-10T06:10:16;2.70;;;2.00;;
77978;SDS011;67169;50.268;8.694;2023-05-10T06:12:42;2.70;;;2.00;;
77978;SDS011;67169;50.268;8.694;2023-05-10T06:15:09;3.05;;;2.10;;
77978;SDS011;67169;50.268;8.694;2023-05-10T06:17:36;2.60;;;2.20;;
77978;SDS011;67169;50.268;8.694;2023-05-10T06:20:05;3.30;;;2.20;;
77978;SDS011;67169;50.268;8.694;2023-05-10T06:22:33;2.80;;;2.22;;
77978;SDS011;67169;50.268;8.694;2023-05-10T06:24:59;3.47;;;2.03;;
77978;SDS011;67169;50.268;8.694;2023-05-10T06:27:26;11.50;;;3.13;;
77978;SDS011;67169;50.268;8.694;2023-05-10T06:29:53;5.30;;;2.85;;
77978;SDS011;67169;50.268;8.694;2023-05-10T06:32:20;4.57;;;3.00;;
77978;SDS011;67169;50.268;8.694;2023-05-10T06:34:47;6.88;;;2.92;;
77978;SDS011;67169;50.268;8.694;2023-05-10T06:37:15;6.32;;;3.15;;
77978;SDS011;67169;50.268;8.694;2023-05-10T06:39:41;2.72;;;2.05;;
77978;SDS011;67169;50.268;8.694;2023-05-10T06:42:08;2.38;;;1.90;;
77978;SDS011;67169;50.268;8.694;2023-05-10T06:44:35;1.98;;;1.73;;
77978;SDS011;67169;50.268;8.694;2023-05-10T06:47:01;2.38;;;1.75;;
77978;SDS011;67169;50.268;8.694;2023-05-10T06:49:28;2.75;;;1.80;;
77978;SDS011;67169;50.268;8.694;2023-05-10T06:51:55;2.58;;;1.90;;
77978;SDS011;67169;50.268;8.694;2023-05-10T06:54:23;4.00;;;2.30;;
77978;SDS011;67169;50.268;8.694;2023-05-10T06:56:49;2.90;;;2.17;;
77978;SDS011;67169;50.268;8.694;2023-05-10T06:59:16;5.90;;;2.33;;
77978;SDS011;67169;50.268;8.694;2023-05-10T07:01:44;2.78;;;1.77;;
77978;SDS011;67169;50.268;8.694;2023-05-10T07:04:10;2.58;;;1.92;;
77978;SDS011;67169;50.268;8.694;2023-05-10T07:06:37;5.18;;;2.10;;
77978;SDS011;67169;50.268;8.694;2023-05-10T07:09:04;2.83;;;2.20;;
77978;SDS011;67169;50.268;8.694;2023-05-10T07:11:32;4.13;;;1.88;;
77978;SDS011;67169;50.268;8.694;2023-05-10T07:13:58;2.60;;;1.90;;
77978;SDS011;67169;50.268;8.694;2023-05-10T07:16:25;3.03;;;1.75;;
77978;SDS011;67169;50.268;8.694;2023-05-10T07:18:52;2.22;;;1.80;;
77978;SDS011;67169;50.268;8.694;2023-05-10T07:21:18;1.67;;;1.58;;
77978;SDS011;67169;50.268;8.694;2023-05-10T07:23:45;2.20;;;1.85;;
77978;SDS011;67169;50.268;8.694;2023-05-10T07:26:11;2.97;;;2.10;;
77978;SDS011;67169;50.268;8.694;2023-05-10T07:28:41;3.15;;;1.73;;
77978;SDS011;67169;50.268;8.694;2023-05-10T07:31:07;4.45;;;2.10;;
77978;SDS011;67169;50.268;8.694;2023-05-10T07:33:34;3.15;;;1.75;;
77978;SDS011;67169;50.268;8.694;2023-05-10T07:36:01;7.60;;;2.20;;
77978;SDS011;67169;50.268;8.694;2023-05-10T07:38:27;4.80;;;1.83;;
77978;SDS011;67169;50.268;8.694;2023-05-10T07:40:54;2.95;;;1.30;;
77978;SDS011;67169;50.268;8.694;2023-05-10T07:43:20;3.40;;;1.90;;
77978;SDS011;67169;50.268;8.694;2023-05-10T07:45:48;5.47;;;2.20;;
77978;SDS011;67169;50.268;8.694;2023-05-10T07:48:15;3.70;;;2.30;;
77978;SDS011;67169;50.268;8.694;2023-05-10T07:50:41;2.22;;;2.03;;
77978;SDS011;67169;50.268;8.694;2023-05-10T07:53:08;5.97;;;2.30;;
77978;SDS011;67169;50.268;8.694;2023-05-10T07:55:34;3.00;;;1.73;;
77978;SDS011;67169;50.268;8.694;2023-05-10T07:58:01;3.13;;;1.55;;
77978;SDS011;67169;50.268;8.694;2023-05-10T08:00:28;4.78;;;1.88;;
77978;SDS011;67169;50.268;8.694;2023-05-10T08:02:56;1.80;;;1.25;;
77978;SDS011;67169;50.268;8.694;2023-05-10T08:05:22;3.20;;;1.40;;
77978;SDS011;67169;50.268;8.694;2023-05-10T08:07:49;3.53;;;2.03;;
77978;SDS011;67169;50.268;8.694;2023-05-10T08:10:15;3.85;;;1.60;;
77978;SDS011;67169;50.268;8.694;2023-05-10T08:12:42;3.55;;;1.88;;
77978;SDS011;67169;50.268;8.694;2023-05-10T08:15:09;11.48;;;6.60;;
77978;SDS011;67169;50.268;8.694;2023-05-10T08:17:36;4.63;;;2.30;;
77978;SDS011;67169;50.268;8.694;2023-05-10T08:20:04;3.45;;;2.38;;
77978;SDS011;67169;50.268;8.694;2023-05-10T08:22:32;3.53;;;2.50;;
77978;SDS011;67169;50.268;8.694;2023-05-10T08:24:59;2.55;;;2.15;;
77978;SDS011;67169;50.268;8.694;2023-05-10T08:27:25;7.43;;;2.08;;
77978;SDS011;67169;50.268;8.694;2023-05-10T08:29:52;5.30;;;2.55;;
77978;SDS011;67169;50.268;8.694;2023-05-10T08:32:18;5.07;;;2.92;;
77978;SDS011;67169;50.268;8.694;2023-05-10T08:34:45;6.80;;;3.17;;
77978;SDS011;67169;50.268;8.694;2023-05-10T08:37:13;4.40;;;2.50;;
77978;SDS011;67169;50.268;8.694;2023-05-10T08:39:40;3.75;;;2.30;;
77978;SDS011;67169;50.268;8.694;2023-05-10T08:42:06;3.95;;;2.63;;
77978;SDS011;67169;50.268;8.694;2023-05-10T08:44:35;3.42;;;2.40;;
77978;SDS011;67169;50.268;8.694;2023-05-10T08:47:04;5.35;;;3.05;;
77978;SDS011;67169;50.268;8.694;2023-05-10T08:49:32;3.75;;;2.28;;
77978;SDS011;67169;50.268;8.694;2023-05-10T08:51:59;4.55;;;2.13;;
77978;SDS011;67169;50.268;8.694;2023-05-10T08:54:32;3.50;;;2.15;;
77978;SDS011;67169;50.268;8.694;2023-05-10T08:56:59;2.95;;;1.95;;
77978;SDS011;67169;50.268;8.694;2023-05-10T08:59:26;5.30;;;1.90;;
77978;SDS011;67169;50.268;8.694;2023-05-10T09:01:53;3.13;;;2.20;;
77978;SDS011;67169;50.268;8.694;2023-05-10T09:04:23;3.63;;;2.50;;
77978;SDS011;67169;50.268;8.694;2023-05-10T09:06:50;4.40;;;2.38;;
77978;SDS011;67169;50.268;8.694;2023-05-10T09:09:17;2.92;;;1.60;;
77978;SDS011;67169;50.268;8.694;2023-05-10T09:11:45;2.53;;;2.10;;
77978;SDS011;67169;50.268;8.694;2023-05-10T09:14:12;11.15;;;4.50;;
77978;SDS011;67169;50.268;8.694;2023-05-10T09:16:39;3.30;;;1.63;;
77978;SDS011;67169;50.268;8.694;2023-05-10T09:19:07;1.50;;;1.10;;
77978;SDS011;67169;50.268;8.694;2023-05-10T09:21:34;1.75;;;1.38;;
77978;SDS011;67169;50.268;8.694;2023-05-10T09:24:03;1.75;;;1.60;;
77978;SDS011;67169;50.268;8.694;2023-05-10T09:28:59;3.95;;;1.52;;
77978;SDS011;67169;50.268;8.694;2023-05-10T09:34:09;2.00;;;1.58;;
77978;SDS011;67169;50.268;8.694;2023-05-10T09:36:36;2.08;;;1.52;;
77978;SDS011;67169;50.268;8.694;2023-05-10T09:39:02;1.80;;;1.40;;
77978;SDS011;67169;50.268;8.694;2023-05-10T09:41:29;3.10;;;1.13;;
77978;SDS011;67169;50.268;8.694;2023-05-10T09:43:55;1.60;;;1.50;;
77978;SDS011;67169;50.268;8.694;2023-05-10T09:46:23;2.53;;;1.33;;
77978;SDS011;67169;50.268;8.694;2023-05-10T09:48:51;1.75;;;1.20;;
77978;SDS011;67169;50.268;8.694;2023-05-10T09:51:20;1.73;;;1.35;;
77978;SDS011;67169;50.268;8.694;2023-05-10T09:53:47;2.53;;;1.70;;
77978;SDS011;67169;50.268;8.694;2023-05-10T09:59:03;2.78;;;1.50;;
77978;SDS011;67169;50.268;8.694;2023-05-10T10:01:32;3.13;;;1.65;;
77978;SDS011;67169;50.268;8.694;2023-05-10T10:03:59;1.88;;;1.15;;
77978;SDS011;67169;50.268;8.694;2023-05-10T10:06:29;5.18;;;1.88;;
77978;SDS011;67169;50.268;8.694;2023-05-10T10:08:55;1.85;;;0.93;;
77978;SDS011;67169;50.268;8.694;2023-05-10T10:11:22;3.72;;;1.10;;
77978;SDS011;67169;50.268;8.694;2023-05-10T10:13:50;1.10;;;1.00;;
77978;SDS011;67169;50.268;8.694;2023-05-10T10:16:16;2.47;;;0.95;;
77978;SDS011;67169;50.268;8.694;2023-05-10T10:18:44;1.35;;;0.90;;
77978;SDS011;67169;50.268;8.694;2023-05-10T10:21:12;1.58;;;0.60;;
77978;SDS011;67169;50.268;8.694;2023-05-10T10:23:39;1.05;;;0.75;;
77978;SDS011;67169;50.268;8.694;2023-05-10T10:26:06;2.90;;;0.80;;
77978;SDS011;67169;50.268;8.694;2023-05-10T10:28:35;1.42;;;0.90;;
77978;SDS011;67169;50.268;8.694;2023-05-10T10:31:13;2.47;;;0.98;;
77978;SDS011;67169;50.268;8.694;2023-05-10T10:33:59;3.08;;;0.90;;
77978;SDS011;67169;50.268;8.694;2023-05-10T10:36:27;1.48;;;0.90;;
77978;SDS011;67169;50.268;8.694;2023-05-10T10:38:56;3.35;;;0.77;;
77978;SDS011;67169;50.268;8.694;2023-05-10T10:41:29;1.25;;;0.73;;
77978;SDS011;67169;50.268;8.694;2023-05-10T10:46:59;2.33;;;0.80;;
77978;SDS011;67169;50.268;8.694;2023-05-10T10:49:32;2.45;;;0.80;;
77978;SDS011;67169;50.268;8.694;2023-05-10T10:52:15;4.25;;;1.10;;
77978;SDS011;67169;50.268;8.694;2023-05-10T10:54:51;2.90;;;0.80;;
77978;SDS011;67169;50.268;8.694;2023-05-10T10:57:18;2.55;;;0.80;;
77978;SDS011;67169;50.268;8.694;2023-05-10T10:59:47;1.88;;;1.05;;
77978;SDS011;67169;50.268;8.694;2023-05-10T11:02:33;3.28;;;1.27;;
77978;SDS011;67169;50.268;8.694;2023-05-10T11:05:03;4.75;;;1.15;;
77978;SDS011;67169;50.268;8.694;2023-05-10T11:08:01;5.45;;;2.08;;
77978;SDS011;67169;50.268;8.694;2023-05-10T11:10:35;2.70;;;1.77;;
77978;SDS011;67169;50.268;8.694;2023-05-10T11:13:02;2.70;;;1.42;;
77978;SDS011;67169;50.268;8.694;2023-05-10T11:15:31;1.05;;;0.80;;
77978;SDS011;67169;50.268;8.694;2023-05-10T11:17:58;2.45;;;0.80;;
77978;SDS011;67169;50.268;8.694;2023-05-10T11:20:28;1.55;;;0.93;;
77978;SDS011;67169;50.268;8.694;2023-05-10T11:23:00;1.17;;;0.80;;
77978;SDS011;67169;50.268;8.694;2023-05-10T11:25:41;2.55;;;0.82;;
77978;SDS011;67169;50.268;8.694;2023-05-10T11:28:09;1.58;;;0.80;;
77978;SDS011;67169;50.268;8.694;2023-05-10T11:30:36;2.78;;;0.75;;
77978;SDS011;67169;50.268;8.694;2023-05-10T11:35:32;1.00;;;0.80;;
77978;SDS011;67169;50.268;8.694;2023-05-10T11:38:04;1.02;;;0.70;;
77978;SDS011;67169;50.268;8.694;2023-05-10T11:40:31;1.40;;;1.00;;
77978;SDS011;67169;50.268;8.694;2023-05-10T11:42:58;5.90;;;1.27;;
77978;SDS011;67169;50.268;8.694;2023-05-10T11:45:25;2.63;;;1.13;;
77978;SDS011;67169;50.268;8.694;2023-05-10T11:47:53;1.90;;;0.80;;
77978;SDS011;67169;50.268;8.694;2023-05-10T11:50:19;3.13;;;1.67;;
77978;SDS011;67169;50.268;8.694;2023-05-10T11:52:51;1.10;;;0.80;;
77978;SDS011;67169;50.268;8.694;2023-05-10T11:55:18;0.52;;;0.50;;
77978;SDS011;67169;50.268;8.694;2023-05-10T11:57:45;4.32;;;0.90;;
77978;SDS011;67169;50.268;8.694;2023-05-10T12:00:12;2.03;;;0.90;;
77978;SDS011;67169;50.268;8.694;2023-05-10T12:02:39;0.90;;;0.85;;
77978;SDS011;67169;50.268;8.694;2023-05-10T12:05:06;2.25;;;0.93;;
77978;SDS011;67169;50.268;8.694;2023-05-10T12:07:33;0.93;;;0.73;;
77978;SDS011;67169;50.268;8.694;2023-05-10T12:10:06;1.30;;;0.90;;
77978;SDS011;67169;50.268;8.694;2023-05-10T12:12:35;3.67;;;1.55;;
77978;SDS011;67169;50.268;8.694;2023-05-10T12:15:07;1.48;;;0.80;;
77978;SDS011;67169;50.268;8.694;2023-05-10T12:17:37;2.10;;;0.63;;
77978;SDS011;67169;50.268;8.694;2023-05-10T12:20:13;1.02;;;0.50;;
77978;SDS011;67169;50.268;8.694;2023-05-10T12:22:43;0.43;;;0.38;;
77978;SDS011;67169;50.268;8.694;2023-05-10T12:25:12;1.48;;;0.30;;
77978;SDS011;67169;50.268;8.694;2023-05-10T12:27:38;0.45;;;0.45;;
77978;SDS011;67169;50.268;8.694;2023-05-10T12:30:05;0.93;;;0.60;;
77978;SDS011;67169;50.268;8.694;2023-05-10T12:32:39;1.70;;;0.45;;
77978;SDS011;67169;50.268;8.694;2023-05-10T12:35:07;0.55;;;0.38;;
77978;SDS011;67169;50.268;8.694;2023-05-10T12:40:05;1.02;;;0.45;;
77978;SDS011;67169;50.268;8.694;2023-05-10T12:42:35;1.80;;;1.27;;
77978;SDS011;67169;50.268;8.694;2023-05-10T12:45:02;1.27;;;0.50;;
77978;SDS011;67169;50.268;8.694;2023-05-10T12:47:30;2.63;;;0.52;;
77978;SDS011;67169;50.268;8.694;2023-05-10T12:49:57;1.05;;;0.40;;
77978;SDS011;67169;50.268;8.694;2023-05-10T12:52:24;1.65;;;0.50;;
77978;SDS011;67169;50.268;8.694;2023-05-10T12:54:51;0.40;;;0.40;;
77978;SDS011;67169;50.268;8.694;2023-05-10T12:57:17;2.05;;;0.40;;
77978;SDS011;67169;50.268;8.694;2023-05-10T12:59:46;1.45;;;0.50;;
77978;SDS011;67169;50.268;8.694;2023-05-10T13:02:12;0.45;;;0.30;;
77978;SDS011;67169;50.268;8.694;2023-05-10T13:04:39;0.75;;;0.50;;
77978;SDS011;67169;50.268;8.694;2023-05-10T13:07:07;1.10;;;0.30;;
77978;SDS011;67169;50.268;8.694;2023-05-10T13:09:33;0.57;;;0.40;;
77978;SDS011;67169;50.268;8.694;2023-05-10T13:12:00;1.40;;;0.45;;
77978;SDS011;67169;50.268;8.694;2023-05-10T13:14:27;0.60;;;0.45;;
77978;SDS011;67169;50.268;8.694;2023-05-10T13:16:55;0.32;;;0.32;;
77978;SDS011;67169;50.268;8.694;2023-05-10T13:19:21;1.88;;;0.50;;
77978;SDS011;67169;50.268;8.694;2023-05-10T13:21:48;0.98;;;0.40;;
77978;SDS011;67169;50.268;8.694;2023-05-10T13:24:15;0.60;;;0.50;;
77978;SDS011;67169;50.268;8.694;2023-05-10T13:26:42;8.43;;;0.73;;
77978;SDS011;67169;50.268;8.694;2023-05-10T13:29:09;6.07;;;0.57;;
77978;SDS011;67169;50.268;8.694;2023-05-10T13:31:35;2.22;;;0.50;;
77978;SDS011;67169;50.268;8.694;2023-05-10T13:34:03;0.40;;;0.40;;
77978;SDS011;67169;50.268;8.694;2023-05-10T13:36:30;1.48;;;0.77;;
77978;SDS011;67169;50.268;8.694;2023-05-10T13:38:56;0.47;;;0.40;;
77978;SDS011;67169;50.268;8.694;2023-05-10T13:41:23;1.17;;;0.35;;
77978;SDS011;67169;50.268;8.694;2023-05-10T13:43:50;0.60;;;0.40;;
77978;SDS011;67169;50.268;8.694;2023-05-10T13:46:16;1.60;;;0.30;;
77978;SDS011;67169;50.268;8.694;2023-05-10T13:48:43;0.40;;;0.40;;
77978;SDS011;67169;50.268;8.694;2023-05-10T13:51:11;0.43;;;0.40;;
77978;SDS011;67169;50.268;8.694;2023-05-10T13:53:37;0.80;;;0.38;;
77978;SDS011;67169;50.268;8.694;2023-05-10T13:56:04;1.88;;;0.35;;
77978;SDS011;67169;50.268;8.694;2023-05-10T13:58:31;0.70;;;0.50;;
77978;SDS011;67169;50.268;8.694;2023-05-10T14:00:58;7.35;;;2.38;;
77978;SDS011;67169;50.268;8.694;2023-05-10T14:03:24;2.70;;;0.68;;
77978;SDS011;67169;50.268;8.694;2023-05-10T14:05:51;2.05;;;0.80;;
77978;SDS011;67169;50.268;8.694;2023-05-10T14:08:19;0.93;;;0.73;;
77978;SDS011;67169;50.268;8.694;2023-05-10T14:10:46;2.00;;;1.20;;
77978;SDS011;67169;50.268;8.694;2023-05-10T14:13:13;3.15;;;2.13;;
77978;SDS011;67169;50.268;8.694;2023-05-10T14:15:40;2.42;;;0.95;;
77978;SDS011;67169;50.268;8.694;2023-05-10T14:18:07;2.97;;;2.15;;
77978;SDS011;67169;50.268;8.694;2023-05-10T14:20:33;1.38;;;0.40;;
77978;SDS011;67169;50.268;8.694;2023-05-10T14:23:00;0.43;;;0.40;;
77978;SDS011;67169;50.268;8.694;2023-05-10T14:25:29;1.42;;;1.00;;
77978;SDS011;67169;50.268;8.694;2023-05-10T14:27:55;0.60;;;0.50;;
77978;SDS011;67169;50.268;8.694;2023-05-10T14:30:22;2.17;;;0.60;;
77978;SDS011;67169;50.268;8.694;2023-05-10T14:32:49;1.50;;;0.70;;
77978;SDS011;67169;50.268;8.694;2023-05-10T14:37:42;1.48;;;0.98;;
77978;SDS011;67169;50.268;8.694;2023-05-10T14:40:12;6.15;;;1.60;;
77978;SDS011;67169;50.268;8.694;2023-05-10T14:42:40;0.55;;;0.40;;
77978;SDS011;67169;50.268;8.694;2023-05-10T14:45:08;1.10;;;0.40;;
77978;SDS011;67169;50.268;8.694;2023-05-10T14:47:38;1.92;;;0.50;;
77978;SDS011;67169;50.268;8.694;2023-05-10T14:50:05;0.98;;;0.80;;
77978;SDS011;67169;50.268;8.694;2023-05-10T14:52:33;0.68;;;0.40;;
77978;SDS011;67169;50.268;8.694;2023-05-10T14:55:00;2.00;;;0.40;;
77978;SDS011;67169;50.268;8.694;2023-05-10T14:57:27;1.02;;;0.22;;
77978;SDS011;67169;50.268;8.694;2023-05-10T14:59:56;2.88;;;0.40;;
77978;SDS011;67169;50.268;8.694;2023-05-10T15:02:22;0.57;;;0.32;;
77978;SDS011;67169;50.268;8.694;2023-05-10T15:04:49;0.20;;;0.20;;
77978;SDS011;67169;50.268;8.694;2023-05-10T15:07:16;1.98;;;0.30;;
77978;SDS011;67169;50.268;8.694;2023-05-10T15:12:09;1.38;;;0.30;;
77978;SDS011;67169;50.268;8.694;2023-05-10T15:14:36;1.02;;;0.40;;
77978;SDS011;67169;50.268;8.694;2023-05-10T15:17:05;0.63;;;0.20;;
77978;SDS011;67169;50.268;8.694;2023-05-10T15:19:33;3.03;;;0.28;;
77978;SDS011;67169;50.268;8.694;2023-05-10T15:22:01;0.47;;;0.30;;